San Diego, California
Traffic Map
Current Weather Conditions
San Diego, California
Overcast Light Rain
Overcast
14°
Feels Like: 14°
Wind Chill: 14° Ceiling: 2000
Heat Index: 14° Visibility: 5mi
Dew Point: 13° Wind: 22mph
Humidity: 90% Direction: 180° (S)
Pressure: 30in Gusts: 30mph
Raw Report DataKSAN 230600Z 18019G26KT 5SM -RA BR SCT005 OVC020 14/13 A3000 RMK AO2 PK WND 18026/0555 P0000 T01440128
Traffic Incident Summary
Active as of:
Severity:
Category:
InformationThere was an issue retrieving the traffic information for this location. Please try a different location or try again shortly.
Advertisements
Track Severe Weather on mobile